sensor_id;sensor_type;location;lat;lon;timestamp;temperature;humidity
17174;DHT22;8702;48.130;-1.696;2022-12-11T04:45:22;2.40;99.90
17174;DHT22;8702;48.130;-1.696;2022-12-11T04:47:49;2.40;99.90
17174;DHT22;8702;48.130;-1.696;2022-12-11T04:50:16;2.40;99.90
17174;DHT22;8702;48.130;-1.696;2022-12-11T04:52:43;2.40;99.90
17174;DHT22;8702;48.130;-1.696;2022-12-11T04:55:11;2.40;99.90
17174;DHT22;8702;48.130;-1.696;2022-12-11T04:57:38;2.40;99.90
17174;DHT22;8702;48.130;-1.696;2022-12-11T05:00:07;2.20;99.90
17174;DHT22;8702;48.130;-1.696;2022-12-11T05:02:37;2.30;99.90
17174;DHT22;8702;48.130;-1.696;2022-12-11T05:05:06;2.30;99.90
17174;DHT22;8702;48.130;-1.696;2022-12-11T05:07:35;2.40;99.90
17174;DHT22;8702;48.130;-1.696;2022-12-11T05:10:03;2.40;99.90
17174;DHT22;8702;48.130;-1.696;2022-12-11T05:12:31;2.40;99.90
17174;DHT22;8702;48.130;-1.696;2022-12-11T05:14:58;2.40;99.90
17174;DHT22;8702;48.130;-1.696;2022-12-11T05:17:25;2.40;99.90
17174;DHT22;8702;48.130;-1.696;2022-12-11T05:19:53;2.40;99.90
17174;DHT22;8702;48.130;-1.696;2022-12-11T05:22:20;2.40;99.90
17174;DHT22;8702;48.130;-1.696;2022-12-11T05:24:47;2.20;99.90
17174;DHT22;8702;48.130;-1.696;2022-12-11T05:27:14;2.20;99.90
17174;DHT22;8702;48.130;-1.696;2022-12-11T05:29:41;2.30;99.90
17174;DHT22;8702;48.130;-1.696;2022-12-11T05:32:08;2.40;99.90
17174;DHT22;8702;48.130;-1.696;2022-12-11T05:34:35;2.40;99.90
17174;DHT22;8702;48.130;-1.696;2022-12-11T05:37:04;2.40;99.90
17174;DHT22;8702;48.130;-1.696;2022-12-11T05:39:31;2.40;99.90
17174;DHT22;8702;48.130;-1.696;2022-12-11T05:41:58;2.40;99.90
17174;DHT22;8702;48.130;-1.696;2022-12-11T05:44:25;2.50;99.90
17174;DHT22;8702;48.130;-1.696;2022-12-11T05:46:52;2.60;99.90
17174;DHT22;8702;48.130;-1.696;2022-12-11T05:49:19;2.60;99.90
17174;DHT22;8702;48.130;-1.696;2022-12-11T05:51:46;2.60;99.90
17174;DHT22;8702;48.130;-1.696;2022-12-11T05:54:14;2.40;99.90
17174;DHT22;8702;48.130;-1.696;2022-12-11T05:56:41;2.60;99.90
17174;DHT22;8702;48.130;-1.696;2022-12-11T05:59:08;2.40;99.90
17174;DHT22;8702;48.130;-1.696;2022-12-11T06:01:37;2.40;99.90
17174;DHT22;8702;48.130;-1.696;2022-12-11T06:04:06;2.60;99.90
17174;DHT22;8702;48.130;-1.696;2022-12-11T06:06:33;2.40;99.90
17174;DHT22;8702;48.130;-1.696;2022-12-11T06:09:01;2.50;99.90
17174;DHT22;8702;48.130;-1.696;2022-12-11T06:11:31;2.50;99.90
17174;DHT22;8702;48.130;-1.696;2022-12-11T06:13:58;2.50;99.90
17174;DHT22;8702;48.130;-1.696;2022-12-11T06:16:26;2.50;99.90
17174;DHT22;8702;48.130;-1.696;2022-12-11T06:18:53;2.50;99.90
17174;DHT22;8702;48.130;-1.696;2022-12-11T06:21:22;2.50;99.90
17174;DHT22;8702;48.130;-1.696;2022-12-11T06:23:51;2.60;99.90
17174;DHT22;8702;48.130;-1.696;2022-12-11T06:26:19;2.60;99.90
17174;DHT22;8702;48.130;-1.696;2022-12-11T06:28:48;2.60;99.90
17174;DHT22;8702;48.130;-1.696;2022-12-11T06:31:16;2.60;99.90
17174;DHT22;8702;48.130;-1.696;2022-12-11T09:36:23;3.50;99.90
17174;DHT22;8702;48.130;-1.696;2022-12-11T09:41:34;3.50;99.90
17174;DHT22;8702;48.130;-1.696;2022-12-11T10:19:32;4.10;99.90
17174;DHT22;8702;48.130;-1.696;2022-12-11T10:22:01;4.10;99.90
17174;DHT22;8702;48.130;-1.696;2022-12-11T10:24:33;4.00;99.90
17174;DHT22;8702;48.130;-1.696;2022-12-11T10:27:13;3.90;99.90
17174;DHT22;8702;48.130;-1.696;2022-12-11T10:29:40;3.90;99.90
17174;DHT22;8702;48.130;-1.696;2022-12-11T10:32:14;3.90;99.90
17174;DHT22;8702;48.130;-1.696;2022-12-11T10:34:48;3.90;99.90
17174;DHT22;8702;48.130;-1.696;2022-12-11T10:37:22;4.00;99.90
17174;DHT22;8702;48.130;-1.696;2022-12-11T10:39:49;4.00;99.90
17174;DHT22;8702;48.130;-1.696;2022-12-11T10:42:18;4.10;99.90
17174;DHT22;8702;48.130;-1.696;2022-12-11T10:44:55;4.20;99.90
17174;DHT22;8702;48.130;-1.696;2022-12-11T10:47:23;4.30;99.90
17174;DHT22;8702;48.130;-1.696;2022-12-11T10:49:52;4.40;99.90
17174;DHT22;8702;48.130;-1.696;2022-12-11T10:54:55;4.60;99.90
17174;DHT22;8702;48.130;-1.696;2022-12-11T10:57:28;4.60;99.90
17174;DHT22;8702;48.130;-1.696;2022-12-11T10:59:57;4.70;99.90
17174;DHT22;8702;48.130;-1.696;2022-12-11T11:02:26;4.70;99.90
17174;DHT22;8702;48.130;-1.696;2022-12-11T11:04:54;4.70;99.90
17174;DHT22;8702;48.130;-1.696;2022-12-11T11:15:05;4.90;99.90
17174;DHT22;8702;48.130;-1.696;2022-12-11T11:17:41;4.80;99.90
17174;DHT22;8702;48.130;-1.696;2022-12-11T11:20:13;4.70;99.90
17174;DHT22;8702;48.130;-1.696;2022-12-11T11:22:44;4.80;99.90
17174;DHT22;8702;48.130;-1.696;2022-12-11T11:25:16;4.80;99.90
17174;DHT22;8702;48.130;-1.696;2022-12-11T11:30:19;4.70;99.90
17174;DHT22;8702;48.130;-1.696;2022-12-11T11:32:46;4.70;99.90
17174;DHT22;8702;48.130;-1.696;2022-12-11T11:35:21;4.50;99.90
17174;DHT22;8702;48.130;-1.696;2022-12-11T11:37:55;4.30;99.90
17174;DHT22;8702;48.130;-1.696;2022-12-11T11:40:27;4.20;99.90
17174;DHT22;8702;48.130;-1.696;2022-12-11T11:43:01;4.50;99.90
